Hauptseite
METAR-TAF:

METAR-TAF

Flughäfen :

Turin, Italien

Bric della Croce

Breite: 45-02N, Länge: 007-44E, Höhe: 709 m

Beobachtung

Neuester Wetterbericht von vor 31 Minuten, um 10:55 UTC
Windstille
Temperatur 8°C
Luftfeuchtigkeit 100%
Luftdruck 1020 hPa
Sichtweite: 3000 m
Durchbrochene Bewölkung in der Höhe von 400 ft
feuchter Dunst

METAR: LIMK 231055Z 00000KT 3000 BR BKN004 08/08 Q1020 RMK BKN VAL FOSCHIA VIS MIN 3000

Zeit: 12:26 (11:26 UTC)


TAF: fehlend

Wetterbeobachtungen und Prognosen von mehr als 4000 Flughäfen (METAR und TAF Bericht).

Die verfügbaren Stationen werden durch gelbe und rote Markierungen auf der Karte dargestellt.

Führen Sie die Maus auf sie, um den Namen der Station zu sehen.

Darauf klicken, um die Beobachtung von Wetterbeobachtungen und Prognosen zu sehen.

Um die Karte zu ändern : klicken Sie auf den grünen Tasten mit einem schwarzen Kreuz Zum Vergrößern, auf den grünen Button mit einem Gedankenstrich zu verkleinern, oder auf die grünen Pfeile für benachbarte Karten.


METAR-TAF: